Time;durP1;ratioP1;P1;durP2;ratioP2;P2;SDS_P1;SDS_P2;PMS_P1;PMS_P2;Temp;Humidity;BMP_temperature;BMP_pressure;BME280_temperature;BME280_humidity;BME280_pressure;Samples;Min_cycle;Max_cycle;Signal;HPM_P1;HPM_P2
2022/11/13 00:03:08;;;;;;;20.38;8.80;;;14.30;66.40;;;;;;6239969;28;20033;-77
2022/11/13 00:06:27;;;;;;;22.52;8.35;;;14.30;66.50;;;;;;6254589;28;20702;-78
2022/11/13 00:09:47;;;;;;;17.25;7.80;;;14.20;66.60;;;;;;6257210;28;20119;-78
2022/11/13 00:13:07;;;;;;;22.13;7.85;;;14.10;66.70;;;;;;6254252;28;20045;-78
2022/11/13 00:16:27;;;;;;;19.02;8.20;;;14.10;66.90;;;;;;6266195;28;20033;-78
2022/11/13 00:19:46;;;;;;;17.80;8.57;;;14.10;67.00;;;;;;6261902;28;20042;-77
2022/11/13 00:23:06;;;;;;;18.63;8.90;;;14.10;67.00;;;;;;6238314;28;20041;-78
2022/11/13 00:26:28;;;;;;;20.65;8.60;;;14.10;67.10;;;;;;6258613;28;20037;-77
2022/11/13 00:29:48;;;;;;;17.55;8.63;;;14.10;67.10;;;;;;6243125;28;20503;-77
2022/11/13 00:33:08;;;;;;;20.67;8.45;;;14.10;67.20;;;;;;6248850;28;20041;-78
2022/11/13 00:36:28;;;;;;;22.60;8.82;;;14.00;67.20;;;;;;6258254;28;20128;-78
2022/11/13 00:39:47;;;;;;;17.27;8.15;;;14.00;67.40;;;;;;6255861;28;20037;-78
2022/11/13 00:43:06;;;;;;;19.83;8.00;;;14.00;67.60;;;;;;6250706;28;20037;-78
2022/11/13 00:46:26;;;;;;;19.05;9.15;;;13.90;67.70;;;;;;6239109;28;20044;-78
2022/11/13 00:49:45;;;;;;;17.95;7.88;;;13.90;67.90;;;;;;6238976;28;20052;-77
2022/11/13 00:53:05;;;;;;;14.25;7.85;;;13.90;68.10;;;;;;6251574;28;20125;-77
2022/11/13 00:56:25;;;;;;;20.65;8.20;;;13.80;68.10;;;;;;6236914;28;20029;-77
2022/11/13 00:59:45;;;;;;;21.10;9.10;;;13.80;68.30;;;;;;6256505;28;20038;-78
2022/11/13 01:03:04;;;;;;;15.15;8.05;;;13.80;68.50;;;;;;6236277;28;20060;-78
2022/11/13 01:06:26;;;;;;;22.27;7.68;;;13.70;68.50;;;;;;6236194;28;20041;-79
2022/11/13 01:09:49;;;;;;;22.52;8.55;;;13.70;68.50;;;;;;6236506;28;20478;-79
2022/11/13 01:13:08;;;;;;;19.27;6.82;;;13.70;69.30;;;;;;6244068;28;20038;-78
2022/11/13 01:16:28;;;;;;;14.60;6.40;;;13.70;68.60;;;;;;6255451;28;20041;-79
2022/11/13 01:19:48;;;;;;;11.63;6.90;;;13.60;68.60;;;;;;6257363;28;20037;-78
2022/11/13 01:23:07;;;;;;;18.95;7.78;;;13.60;68.50;;;;;;6259399;28;20120;-78
2022/11/13 01:26:28;;;;;;;16.67;7.35;;;13.60;68.60;;;;;;6256659;28;20112;-78
2022/11/13 01:29:47;;;;;;;22.50;8.75;;;13.50;68.70;;;;;;6259430;28;20030;-78
2022/11/13 01:33:07;;;;;;;20.10;7.65;;;13.50;68.80;;;;;;6260005;28;20032;-78
2022/11/13 01:36:28;;;;;;;25.05;8.85;;;13.40;68.90;;;;;;6250082;28;20041;-78
2022/11/13 01:39:47;;;;;;;19.58;8.90;;;13.40;69.10;;;;;;6259780;28;20037;-78
2022/11/13 01:43:23;;;;;;;19.90;8.07;;;13.30;69.20;;;;;;6266524;28;20128;-80
2022/11/13 01:46:54;;;;;;;17.80;7.65;;;13.30;69.20;;;;;;6262531;28;20036;-78
2022/11/13 01:50:14;;;;;;;19.23;8.50;;;13.20;69.40;;;;;;6236115;28;20041;-78
2022/11/13 01:53:33;;;;;;;20.83;8.68;;;13.20;69.60;;;;;;6257036;28;20029;-78
2022/11/13 01:56:54;;;;;;;24.48;9.18;;;13.20;69.60;;;;;;6252037;28;20050;-78
2022/11/13 02:00:13;;;;;;;18.90;8.30;;;13.20;69.70;;;;;;6241367;28;20425;-78
2022/11/13 02:03:33;;;;;;;21.50;8.32;;;13.10;69.70;;;;;;6255396;28;20454;-79
2022/11/13 02:06:59;;;;;;;19.63;9.05;;;13.10;69.80;;;;;;6257280;28;20068;-77
2022/11/13 02:10:18;;;;;;;18.92;8.05;;;13.10;69.90;;;;;;6258240;28;20065;-79
2022/11/13 02:13:38;;;;;;;18.70;8.40;;;13.00;69.80;;;;;;6260347;28;20040;-78
2022/11/13 02:17:01;;;;;;;19.33;7.88;;;13.00;70.00;;;;;;6257395;28;20041;-78
2022/11/13 02:20:28;;;;;;;14.45;6.97;;;13.00;70.00;;;;;;6255849;28;20600;-79
2022/11/13 02:23:53;;;;;;;14.88;6.90;;;13.00;70.10;;;;;;6238862;28;20040;-79
2022/11/13 02:27:27;;;;;;;16.48;6.88;;;13.00;70.10;;;;;;6257500;28;20045;-79
2022/11/13 02:30:46;;;;;;;17.20;6.65;;;13.00;70.10;;;;;;6251319;28;20037;-79
2022/11/13 02:34:05;;;;;;;18.98;7.55;;;12.90;70.00;;;;;;6251506;28;20045;-79
2022/11/13 02:37:25;;;;;;;13.88;7.22;;;13.00;70.10;;;;;;6243527;28;20037;-79
2022/11/13 02:40:45;;;;;;;17.75;7.07;;;12.90;70.10;;;;;;6256958;28;20026;-78
2022/11/13 02:44:06;;;;;;;17.00;8.02;;;13.00;70.20;;;;;;6259293;28;20037;-78
2022/11/13 02:47:25;;;;;;;16.05;7.70;;;12.90;70.10;;;;;;6250263;28;20025;-78
2022/11/13 02:50:45;;;;;;;17.73;8.43;;;13.00;70.20;;;;;;6241821;28;20038;-80
2022/11/13 02:54:05;;;;;;;19.23;8.68;;;12.90;70.10;;;;;;6256574;28;20510;-78
2022/11/13 02:57:25;;;;;;;17.60;7.65;;;12.90;70.30;;;;;;6250687;28;20108;-78
2022/11/13 03:00:44;;;;;;;19.10;8.43;;;12.90;70.40;;;;;;6253868;28;20030;-77
2022/11/13 03:04:03;;;;;;;17.27;6.88;;;12.90;70.40;;;;;;6234578;28;20044;-79
2022/11/13 03:07:23;;;;;;;16.38;7.35;;;12.90;70.50;;;;;;6245405;28;20049;-77
2022/11/13 03:10:42;;;;;;;23.65;6.78;;;12.90;70.60;;;;;;6239044;28;20025;-78
2022/11/13 03:14:02;;;;;;;13.73;6.85;;;12.90;70.50;;;;;;6253531;28;20032;-78
2022/11/13 03:17:22;;;;;;;15.93;7.22;;;13.00;70.50;;;;;;6252865;28;20041;-78
2022/11/13 03:20:43;;;;;;;17.40;8.43;;;13.00;70.30;;;;;;6254801;28;20029;-78
2022/11/13 03:24:02;;;;;;;16.75;7.47;;;13.00;70.10;;;;;;6251045;28;20038;-78
2022/11/13 03:27:22;;;;;;;14.50;6.93;;;13.10;70.10;;;;;;6241378;28;20030;-78
2022/11/13 03:30:41;;;;;;;15.50;7.10;;;13.10;70.00;;;;;;6254385;28;20029;-78
2022/11/13 03:34:01;;;;;;;17.10;7.28;;;13.10;70.10;;;;;;6246545;28;20057;-78
2022/11/13 03:37:21;;;;;;;18.00;7.28;;;13.10;70.00;;;;;;6258383;28;20044;-78
2022/11/13 03:40:41;;;;;;;16.15;6.55;;;13.10;69.90;;;;;;6253123;28;20036;-78
2022/11/13 03:44:01;;;;;;;20.98;7.85;;;13.20;70.00;;;;;;6248097;28;20124;-78
2022/11/13 03:47:22;;;;;;;17.38;7.65;;;13.20;69.80;;;;;;6256089;28;20076;-78
2022/11/13 03:50:48;;;;;;;16.45;7.70;;;13.20;69.70;;;;;;6234826;28;20037;-78
2022/11/13 03:54:07;;;;;;;16.70;7.72;;;13.20;69.40;;;;;;6250613;28;20293;-78
2022/11/13 03:57:26;;;;;;;18.83;7.68;;;13.20;69.40;;;;;;6254888;28;20474;-79
2022/11/13 04:00:47;;;;;;;17.02;8.40;;;13.20;69.40;;;;;;6253592;28;20473;-78
2022/11/13 04:04:06;;;;;;;14.25;6.50;;;13.20;69.40;;;;;;6251947;28;20053;-78
2022/11/13 04:07:26;;;;;;;15.40;7.10;;;13.20;69.40;;;;;;6254693;28;20416;-78
2022/11/13 04:10:46;;;;;;;14.38;7.10;;;13.20;69.50;;;;;;6250521;28;20116;-78
2022/11/13 04:14:05;;;;;;;21.63;7.93;;;13.20;69.30;;;;;;6255200;28;20040;-77
2022/11/13 04:17:25;;;;;;;16.40;7.68;;;13.10;69.20;;;;;;6251772;28;20371;-78
2022/11/13 04:20:44;;;;;;;17.63;6.53;;;13.10;69.30;;;;;;6255024;28;20030;-78
2022/11/13 04:24:04;;;;;;;14.35;6.65;;;13.10;69.30;;;;;;6255602;28;20041;-78
2022/11/13 04:27:24;;;;;;;12.48;6.85;;;13.00;69.40;;;;;;6236163;28;20414;-79
2022/11/13 04:30:43;;;;;;;12.68;6.85;;;13.00;70.30;;;;;;6238044;28;20034;-77
2022/11/13 04:34:02;;;;;;;16.65;6.53;;;13.00;69.50;;;;;;6251975;28;20095;-78
2022/11/13 04:37:22;;;;;;;12.73;6.60;;;13.00;69.60;;;;;;6253874;28;20037;-77
2022/11/13 04:40:41;;;;;;;;;;;12.90;69.60;;;;;;6258032;28;20029;-78
2022/11/13 04:44:02;;;;;;;10.77;6.32;;;12.90;69.60;;;;;;6256607;28;20087;-79
2022/11/13 04:47:22;;;;;;;15.07;6.70;;;12.90;69.60;;;;;;6240877;28;20490;-79
2022/11/13 04:50:41;;;;;;;21.58;7.10;;;12.90;69.60;;;;;;6249016;28;20038;-76
2022/11/13 04:54:01;;;;;;;18.00;6.80;;;12.90;69.60;;;;;;6253098;28;20045;-78
2022/11/13 04:57:20;;;;;;;18.17;8.13;;;12.90;69.70;;;;;;6256209;28;20032;-78
2022/11/13 05:00:39;;;;;;;17.48;6.90;;;12.90;69.70;;;;;;6255070;28;20033;-78
2022/11/13 05:03:59;;;;;;;13.70;7.10;;;12.90;69.80;;;;;;6246737;28;20042;-79
2022/11/13 05:07:18;;;;;;;18.45;8.05;;;12.90;69.80;;;;;;6245139;28;20041;-77
2022/11/13 05:10:37;;;;;;;12.68;6.50;;;12.90;69.90;;;;;;6257359;28;20033;-77
2022/11/13 05:13:57;;;;;;;13.27;6.30;;;12.90;69.80;;;;;;6259367;28;20033;-78
2022/11/13 05:17:17;;;;;;;14.73;6.20;;;12.90;69.80;;;;;;6260707;28;20065;-79
2022/11/13 05:20:36;;;;;;;12.95;6.20;;;12.90;69.70;;;;;;6256848;28;20038;-78
2022/11/13 05:23:56;;;;;;;17.35;6.68;;;12.90;69.70;;;;;;6242172;28;20037;-79
2022/11/13 05:27:15;;;;;;;13.23;6.25;;;12.90;69.70;;;;;;6242300;28;20037;-79
2022/11/13 05:30:35;;;;;;;14.77;6.10;;;12.90;69.60;;;;;;6251932;28;20064;-79
2022/11/13 05:33:55;;;;;;;17.05;6.40;;;12.90;69.60;;;;;;6249457;28;20049;-78
2022/11/13 05:37:14;;;;;;;13.40;5.88;;;13.00;69.60;;;;;;6238556;28;20037;-79
2022/11/13 05:40:34;;;;;;;12.85;5.10;;;13.00;69.40;;;;;;6253326;28;21696;-79
2022/11/13 05:43:53;;;;;;;12.18;5.68;;;13.00;69.40;;;;;;6244471;28;20434;-78
2022/11/13 05:47:13;;;;;;;14.98;6.28;;;13.00;69.30;;;;;;6258234;28;20041;-78
2022/11/13 05:50:33;;;;;;;14.20;6.13;;;12.90;69.20;;;;;;6244087;28;20042;-78
2022/11/13 05:53:53;;;;;;;16.90;6.35;;;13.00;69.40;;;;;;6254889;28;20041;-78
2022/11/13 05:57:12;;;;;;;15.02;6.68;;;13.00;69.20;;;;;;6257959;28;20032;-78
2022/11/13 06:00:32;;;;;;;14.95;6.18;;;13.00;69.20;;;;;;6261370;28;20410;-77
2022/11/13 06:03:53;;;;;;;14.70;6.82;;;12.90;69.20;;;;;;6257285;28;20041;-78
2022/11/13 06:07:13;;;;;;;17.63;7.32;;;12.90;69.30;;;;;;6260157;28;20041;-77
2022/11/13 06:10:33;;;;;;;18.75;8.00;;;12.90;69.30;;;;;;6260761;28;20038;-78
2022/11/13 06:13:54;;;;;;;20.02;8.65;;;12.90;69.40;;;;;;6253766;28;20462;-76
2022/11/13 06:17:13;;;;;;;22.83;8.63;;;12.90;69.60;;;;;;6236907;28;20398;-78
2022/11/13 06:20:36;;;;;;;15.25;7.38;;;12.90;69.60;;;;;;6246673;28;20061;-78
2022/11/13 06:23:57;;;;;;;16.63;7.72;;;12.90;69.60;;;;;;6240867;28;20045;-77
2022/11/13 06:27:17;;;;;;;17.95;8.30;;;12.90;69.50;;;;;;6261602;28;20467;-79
2022/11/13 06:30:36;;;;;;;22.55;8.48;;;13.00;69.60;;;;;;6244928;28;20414;-78
2022/11/13 06:33:58;;;;;;;15.20;7.47;;;13.00;69.50;;;;;;6250901;28;20058;-78
2022/11/13 06:37:17;;;;;;;18.58;8.02;;;13.00;69.40;;;;;;6250723;28;20366;-78
2022/11/13 06:40:38;;;;;;;18.75;7.85;;;13.00;69.40;;;;;;6237796;28;20029;-78
2022/11/13 06:43:58;;;;;;;19.83;8.38;;;13.00;70.10;;;;;;6253183;28;20453;-78
2022/11/13 06:47:18;;;;;;;18.52;7.90;;;13.00;69.20;;;;;;6240247;28;20033;-78
2022/11/13 06:50:37;;;;;;;18.00;8.30;;;13.00;69.30;;;;;;6250771;28;20037;-77
2022/11/13 06:53:57;;;;;;;17.17;8.10;;;13.00;69.10;;;;;;6258054;28;20373;-78
2022/11/13 06:57:17;;;;;;;16.00;7.10;;;13.00;69.10;;;;;;6251195;28;20065;-78
2022/11/13 07:00:37;;;;;;;14.63;7.70;;;13.00;69.10;;;;;;6258710;28;20029;-78
2022/11/13 07:03:56;;;;;;;18.50;7.43;;;13.00;69.20;;;;;;6240513;28;20041;-78
2022/11/13 07:07:16;;;;;;;17.92;7.97;;;13.00;69.20;;;;;;6250058;28;20532;-78
2022/11/13 07:10:36;;;;;;;13.60;7.03;;;13.10;69.20;;;;;;6252064;28;20038;-79
2022/11/13 07:13:55;;;;;;;14.90;7.50;;;13.10;69.10;;;;;;6240122;28;20037;-77
2022/11/13 07:17:15;;;;;;;18.02;7.32;;;13.10;69.00;;;;;;6252455;28;20034;-77
2022/11/13 07:20:34;;;;;;;18.88;7.82;;;13.10;68.90;;;;;;6259140;28;20037;-79
2022/11/13 07:23:54;;;;;;;18.10;8.07;;;13.20;68.90;;;;;;6247022;28;20025;-79
2022/11/13 07:27:14;;;;;;;24.42;8.60;;;13.20;68.70;;;;;;6256524;28;20112;-78
2022/11/13 07:30:33;;;;;;;16.73;8.15;;;13.20;68.70;;;;;;6254560;28;20041;-79
2022/11/13 07:33:52;;;;;;;;;;;13.20;68.70;;;;;;6251129;28;20374;-78
2022/11/13 07:37:11;;;;;;;27.67;9.67;;;13.30;68.70;;;;;;6237651;28;19909;-79
2022/11/13 07:40:31;;;;;;;23.05;8.85;;;13.30;68.60;;;;;;6239873;28;20029;-79
2022/11/13 07:43:51;;;;;;;25.98;9.40;;;13.20;68.50;;;;;;6253370;28;20033;-78
2022/11/13 07:47:10;;;;;;;19.70;8.43;;;13.30;68.70;;;;;;6248541;28;20052;-79
2022/11/13 07:50:35;;;;;;;18.75;8.77;;;13.30;68.60;;;;;;6255431;28;20037;-79
2022/11/13 07:53:54;;;;;;;24.88;8.18;;;13.30;68.50;;;;;;6250223;28;20084;-79
2022/11/13 07:57:13;;;;;;;;;;;13.30;68.50;;;;;;6249568;28;20029;-78
2022/11/13 08:00:34;;;;;;;18.17;8.70;;;13.30;68.40;;;;;;6259039;28;19948;-78
2022/11/13 08:03:53;;;;;;;27.00;9.10;;;13.40;68.40;;;;;;6252779;28;20025;-79
2022/11/13 08:07:13;;;;;;;22.10;8.60;;;13.40;68.40;;;;;;6238359;28;20037;-79
2022/11/13 08:10:33;;;;;;;18.98;8.70;;;13.30;68.40;;;;;;6252349;28;20049;-78
2022/11/13 08:13:52;;;;;;;23.52;9.05;;;13.40;68.50;;;;;;6237691;28;20037;-78
2022/11/13 08:17:12;;;;;;;22.58;9.43;;;13.40;68.50;;;;;;6245344;28;20038;-77
2022/11/13 08:20:32;;;;;;;24.38;9.63;;;13.40;68.50;;;;;;6262814;28;20061;-78
2022/11/13 08:23:51;;;;;;;25.27;9.13;;;13.50;69.30;;;;;;6252323;28;20040;-81
2022/11/13 08:27:11;;;;;;;21.02;9.25;;;13.40;68.30;;;;;;6252716;28;20037;-78
2022/11/13 08:30:31;;;;;;;23.75;8.90;;;13.50;68.30;;;;;;6241604;28;20045;-79
2022/11/13 08:33:50;;;;;;;22.50;9.30;;;13.50;68.20;;;;;;6233744;28;20469;-78
2022/11/13 08:37:10;;;;;;;22.42;9.35;;;13.60;68.10;;;;;;6254604;28;20041;-78
2022/11/13 08:40:30;;;;;;;26.58;9.80;;;13.50;68.00;;;;;;6239287;28;20033;-77
2022/11/13 08:43:50;;;;;;;24.25;9.60;;;13.60;68.00;;;;;;6247755;28;20042;-79
2022/11/13 08:47:09;;;;;;;24.73;10.15;;;13.50;67.90;;;;;;6250473;28;20065;-78
2022/11/13 08:50:30;;;;;;;21.23;9.70;;;13.50;68.10;;;;;;6249730;28;20454;-80
2022/11/13 08:53:49;;;;;;;26.02;9.77;;;13.50;68.10;;;;;;6240312;28;20083;-79
2022/11/13 08:57:09;;;;;;;24.30;10.32;;;13.50;68.10;;;;;;6248487;28;20034;-77
2022/11/13 09:00:30;;;;;;;20.05;9.18;;;13.50;68.10;;;;;;6252548;28;20361;-76
2022/11/13 09:03:50;;;;;;;25.65;10.82;;;13.50;68.20;;;;;;6235079;28;20117;-78
2022/11/13 09:07:10;;;;;;;32.83;10.35;;;13.50;68.20;;;;;;6239859;28;20041;-78
2022/11/13 09:10:29;;;;;;;26.83;10.88;;;13.60;68.30;;;;;;6242412;28;20129;-75
2022/11/13 09:13:49;;;;;;;23.83;9.68;;;13.70;68.20;;;;;;6249483;28;20413;-79
2022/11/13 09:17:09;;;;;;;27.58;9.90;;;13.70;68.00;;;;;;6251541;28;20435;-79
2022/11/13 09:20:30;;;;;;;24.63;9.73;;;13.80;67.90;;;;;;6233219;28;20335;-78
2022/11/13 09:23:51;;;;;;;23.80;10.52;;;13.80;67.80;;;;;;6254876;28;20042;-78
2022/11/13 09:27:10;;;;;;;24.05;10.32;;;13.80;67.70;;;;;;6248738;28;20040;-77
2022/11/13 09:30:30;;;;;;;22.60;10.32;;;13.90;67.60;;;;;;6251787;28;20029;-77
2022/11/13 09:33:50;;;;;;;21.30;10.70;;;13.90;67.50;;;;;;6255273;28;20053;-78
2022/11/13 09:37:09;;;;;;;26.77;11.43;;;13.90;67.30;;;;;;6240307;28;20455;-77
2022/11/13 09:40:57;;;;;;;24.08;10.55;;;13.90;67.30;;;;;;6241531;28;20056;-77
2022/11/13 09:44:35;;;;;;;23.77;10.63;;;13.90;67.40;;;;;;6261086;28;20117;-77
2022/11/13 09:48:17;;;;;;;24.63;10.30;;;14.00;67.40;;;;;;6259790;28;20042;-77
2022/11/13 09:51:38;;;;;;;25.70;10.52;;;14.10;67.30;;;;;;6238410;28;20041;-77
2022/11/13 09:54:58;;;;;;;27.35;10.73;;;14.10;66.90;;;;;;6257044;28;20037;-77
2022/11/13 09:58:27;;;;;;;27.75;10.65;;;14.20;66.80;;;;;;6240836;28;20041;-77
2022/11/13 10:01:59;;;;;;;28.55;11.65;;;14.30;66.70;;;;;;6254629;28;20041;-78
2022/11/13 10:05:34;;;;;;;26.25;11.45;;;14.30;66.60;;;;;;6255018;28;20140;-76
2022/11/13 10:09:02;;;;;;;25.75;10.73;;;14.30;66.50;;;;;;6254912;28;20052;-79
2022/11/13 10:12:21;;;;;;;25.85;10.27;;;14.30;66.50;;;;;;6254375;28;20354;-77
2022/11/13 10:15:44;;;;;;;26.05;10.65;;;14.50;66.50;;;;;;6250425;28;20034;-77
2022/11/13 10:19:16;;;;;;;28.00;11.65;;;14.50;66.20;;;;;;6241104;28;20045;-76
2022/11/13 10:22:47;;;;;;;28.98;11.48;;;14.60;66.00;;;;;;6232353;28;20110;-76
2022/11/13 10:26:16;;;;;;;26.70;11.00;;;14.70;65.80;;;;;;6225194;28;20556;-75
2022/11/13 10:29:36;;;;;;;23.10;10.57;;;14.80;65.50;;;;;;6250094;28;20116;-75
2022/11/13 10:33:03;;;;;;;29.90;12.10;;;14.90;66.10;;;;;;6252886;28;21575;-76
2022/11/13 10:36:43;;;;;;;26.33;11.68;;;15.00;65.20;;;;;;6248300;28;20037;-75
2022/11/13 10:40:03;;;;;;;;;;;15.10;64.90;;;;;;6228033;28;20054;-75
2022/11/13 10:43:24;;;;;;;25.23;10.13;;;15.20;64.50;;;;;;6232201;28;19940;-76
2022/11/13 10:46:43;;;;;;;25.48;11.30;;;15.20;64.20;;;;;;6242404;28;20041;-75
2022/11/13 10:50:11;;;;;;;26.35;11.27;;;15.20;64.10;;;;;;6240490;28;20041;-76
2022/11/13 10:53:40;;;;;;;25.02;11.82;;;15.10;64.20;;;;;;6250096;28;20033;-76
2022/11/13 10:57:02;;;;;;;30.20;10.93;;;15.00;64.30;;;;;;6259014;28;20124;-77
2022/11/13 11:00:33;;;;;;;32.53;11.32;;;15.00;64.30;;;;;;6256890;28;20025;-76
2022/11/13 11:03:52;;;;;;;31.08;12.05;;;14.90;64.30;;;;;;6251854;28;20061;-76
2022/11/13 11:07:21;;;;;;;30.05;12.57;;;14.90;64.40;;;;;;6242507;28;20041;-76
2022/11/13 11:12:14;;;;;;;33.03;12.90;;;14.80;64.60;;;;;;6253074;28;20037;-76
2022/11/13 11:14:27;;;;;;;26.42;11.27;;;14.90;64.80;;;;;;6254765;28;20041;-76
2022/11/13 11:17:50;;;;;;;25.88;11.75;;;14.90;64.70;;;;;;6251507;28;20033;-76
2022/11/13 11:21:15;;;;;;;27.27;11.25;;;14.90;64.70;;;;;;6240979;28;20409;-77
2022/11/13 11:24:46;;;;;;;26.73;11.70;;;15.00;64.60;;;;;;6255890;28;20026;-76
2022/11/13 11:28:30;;;;;;;28.70;11.98;;;15.00;64.40;;;;;;6256662;28;20048;-76
2022/11/13 11:32:00;;;;;;;39.40;12.68;;;15.00;64.50;;;;;;6256994;28;20041;-76
2022/11/13 11:35:43;;;;;;;31.27;13.32;;;15.10;64.60;;;;;;6232879;28;20049;-76
2022/11/13 11:39:18;;;;;;;30.33;12.80;;;15.10;64.20;;;;;;6240871;28;20362;-76
2022/11/13 11:42:48;;;;;;;27.58;12.13;;;15.20;64.30;;;;;;6250965;28;20050;-76
2022/11/13 11:46:11;;;;;;;28.23;11.73;;;15.30;64.30;;;;;;6250302;28;20029;-75
2022/11/13 11:49:31;;;;;;;26.20;10.63;;;15.40;64.20;;;;;;6253105;28;20037;-75
2022/11/13 11:53:11;;;;;;;31.48;12.18;;;15.50;63.80;;;;;;6255606;28;20033;-75
2022/11/13 11:56:40;;;;;;;35.90;12.75;;;15.50;63.60;;;;;;6237476;28;20463;-76
2022/11/13 12:00:09;;;;;;;28.77;12.20;;;15.50;63.60;;;;;;6249442;28;20037;-76
2022/11/13 12:03:51;;;;;;;29.83;11.32;;;15.60;63.30;;;;;;6235573;28;20267;-75
2022/11/13 12:07:22;;;;;;;27.10;11.60;;;15.50;63.20;;;;;;6248253;28;20033;-76
2022/11/13 12:10:57;;;;;;;26.42;11.30;;;15.60;63.10;;;;;;6250476;28;20521;-76
2022/11/13 12:14:30;;;;;;;23.45;11.07;;;15.80;63.20;;;;;;6258327;28;20037;-75
2022/11/13 12:17:54;;;;;;;35.05;14.07;;;16.00;62.70;;;;;;6258569;28;20029;-75
2022/11/13 12:21:21;;;;;;;30.90;13.10;;;16.10;62.00;;;;;;6247585;28;20037;-75
2022/11/13 12:24:50;;;;;;;27.88;12.90;;;16.20;61.70;;;;;;6247390;28;20049;-76
2022/11/13 12:28:50;;;;;;;26.60;12.07;;;16.30;61.70;;;;;;6240588;28;20041;-76
2022/11/13 12:32:39;;;;;;;25.27;12.25;;;16.30;61.50;;;;;;6132418;29;20114;-77
2022/11/13 12:36:01;;;;;;;24.08;10.85;;;16.30;61.70;;;;;;6132664;29;20055;-75
2022/11/13 12:39:29;;;;;;;19.88;10.05;;;16.40;61.30;;;;;;6120660;29;20056;-76
2022/11/13 12:43:16;;;;;;;17.83;7.90;;;16.50;60.60;;;;;;6129781;29;20043;-75
2022/11/13 12:46:38;;;;;;;22.13;7.93;;;16.50;60.00;;;;;;6072320;29;20383;-76
2022/11/13 12:50:19;;;;;;;17.10;7.88;;;16.40;59.50;;;;;;6075140;29;20044;-75
2022/11/13 12:53:54;;;;;;;17.25;8.15;;;16.40;59.40;;;;;;6071680;29;20044;-77
2022/11/13 12:57:17;;;;;;;18.50;8.98;;;16.40;59.50;;;;;;6060907;29;20066;-76
2022/11/13 13:00:40;;;;;;;20.23;9.30;;;16.50;59.40;;;;;;6074291;29;20048;-76
2022/11/13 13:04:17;;;;;;;21.55;9.25;;;16.60;59.20;;;;;;6071326;29;20053;-77
2022/11/13 13:07:43;;;;;;;18.05;8.63;;;16.70;59.10;;;;;;6184499;28;20043;-76
2022/11/13 13:11:24;;;;;;;17.50;8.65;;;16.90;58.80;;;;;;6183448;28;20043;-77
2022/11/13 13:15:01;;;;;;;22.70;9.70;;;17.00;58.60;;;;;;6181770;28;20042;-77
2022/11/13 13:18:32;;;;;;;25.88;10.25;;;17.20;58.50;;;;;;6187738;28;20034;-77
2022/11/13 13:21:51;;;;;;;20.85;9.50;;;17.40;58.20;;;;;;6183466;28;20055;-77
2022/11/13 13:25:26;;;;;;;24.58;9.90;;;17.50;57.80;;;;;;6243113;28;20034;-76
2022/11/13 13:28:59;;;;;;;20.58;9.50;;;17.50;57.50;;;;;;6240100;28;20366;-76
2022/11/13 13:32:30;;;;;;;21.27;9.63;;;17.50;57.30;;;;;;6250673;28;20371;-76
2022/11/13 13:36:01;;;;;;;18.75;9.25;;;17.40;57.60;;;;;;6255362;28;20042;-77
2022/11/13 13:39:46;;;;;;;21.40;9.07;;;17.40;57.60;;;;;;6262513;28;20354;-77
2022/11/13 13:43:32;;;;;;;22.83;9.68;;;17.40;57.80;;;;;;6240470;28;20033;-77
2022/11/13 13:46:51;;;;;;;19.98;10.40;;;17.50;57.80;;;;;;6255507;28;20467;-77
2022/11/13 13:50:16;;;;;;;26.02;10.70;;;17.60;57.70;;;;;;6240354;28;20445;-78
2022/11/13 13:53:36;;;;;;;23.70;10.38;;;17.60;57.50;;;;;;6255182;28;20034;-77
2022/11/13 13:56:56;;;;;;;22.08;9.52;;;17.70;57.30;;;;;;6259547;28;20037;-77
2022/11/13 14:00:18;;;;;;;23.52;10.68;;;17.70;57.20;;;;;;6256872;28;20049;-77
2022/11/13 14:03:38;;;;;;;25.60;9.60;;;17.80;57.20;;;;;;6252845;28;20029;-77
2022/11/13 14:06:59;;;;;;;19.48;9.15;;;17.80;57.00;;;;;;6255231;28;20045;-77
2022/11/13 14:10:21;;;;;;;19.13;9.57;;;17.90;56.90;;;;;;6257532;28;20486;-77
2022/11/13 14:17:02;;;;;;;22.55;9.65;;;17.70;56.20;;;;;;6357093;27;20140;-76
2022/11/13 14:20:23;;;;;;;20.38;9.68;;;17.60;57.10;;;;;;6340998;28;20040;-75
2022/11/13 14:23:47;;;;;;;19.85;9.95;;;17.50;57.20;;;;;;6341988;28;20028;-76
2022/11/13 14:27:12;;;;;;;24.17;9.70;;;17.40;57.40;;;;;;6337509;28;20282;-75
2022/11/13 14:30:32;;;;;;;25.35;10.38;;;17.40;57.50;;;;;;6342058;28;20059;-75
2022/11/13 14:33:52;;;;;;;22.23;10.40;;;17.40;57.60;;;;;;6327753;28;20044;-76
2022/11/13 14:37:33;;;;;;;22.77;10.38;;;17.30;57.60;;;;;;6325730;28;20118;-76
2022/11/13 14:40:54;;;;;;;25.52;10.60;;;17.20;57.80;;;;;;6338523;28;20039;-76
2022/11/13 14:44:28;;;;;;;22.83;10.00;;;17.20;57.90;;;;;;6341907;28;20460;-75
2022/11/13 14:48:27;;;;;;;23.90;11.20;;;17.10;58.10;;;;;;6324271;28;20614;-74
2022/11/13 14:51:54;;;;;;;23.48;10.18;;;17.10;58.50;;;;;;6255147;28;20124;-74
2022/11/13 14:55:22;;;;;;;19.15;9.23;;;17.00;58.40;;;;;;6241726;28;20045;-75
2022/11/13 14:58:46;;;;;;;20.00;9.60;;;17.00;58.60;;;;;;6248309;28;20048;-75
2022/11/13 15:02:05;;;;;;;19.33;9.05;;;16.80;58.60;;;;;;6260218;28;20033;-74
2022/11/13 15:05:25;;;;;;;24.05;10.82;;;16.70;58.80;;;;;;6256351;28;20064;-75
2022/11/13 15:08:46;;;;;;;25.13;10.25;;;16.70;58.90;;;;;;6250265;28;20053;-76
2022/11/13 15:12:10;;;;;;;23.55;9.95;;;16.60;59.10;;;;;;6250434;28;20131;-75
2022/11/13 15:15:30;;;;;;;22.40;10.32;;;16.60;59.20;;;;;;6251124;28;20367;-76
2022/11/13 15:18:54;;;;;;;25.08;10.90;;;16.50;59.30;;;;;;6245397;28;20083;-76
2022/11/13 15:22:14;;;;;;;22.88;11.00;;;16.40;59.40;;;;;;6252870;28;20155;-76
2022/11/13 15:25:33;;;;;;;21.33;9.80;;;16.40;59.60;;;;;;6296238;28;20048;-76
2022/11/13 15:28:53;;;;;;;24.17;10.25;;;16.30;59.60;;;;;;6304636;28;20036;-75
2022/11/13 15:32:14;;;;;;;27.50;11.32;;;16.30;59.80;;;;;;6309545;28;20032;-75
2022/11/13 15:35:34;;;;;;;21.70;9.50;;;16.20;59.90;;;;;;6321090;28;20044;-76
2022/11/13 15:38:53;;;;;;;23.15;9.43;;;16.20;59.90;;;;;;6320052;28;20031;-76
2022/11/13 15:42:15;;;;;;;22.77;10.13;;;16.10;60.00;;;;;;6322291;28;20056;-75
2022/11/13 15:45:34;;;;;;;24.83;11.05;;;16.10;60.30;;;;;;6324666;28;20048;-74
2022/11/13 15:48:54;;;;;;;19.73;10.15;;;16.00;60.40;;;;;;6324519;28;20369;-74
2022/11/13 15:52:14;;;;;;;28.15;12.57;;;16.00;60.60;;;;;;6319448;28;20127;-75
2022/11/13 15:55:34;;;;;;;22.17;12.00;;;16.00;60.70;;;;;;6318341;28;20036;-74
2022/11/13 15:58:53;;;;;;;24.25;10.40;;;15.90;60.80;;;;;;6318978;28;20478;-74
2022/11/13 16:02:13;;;;;;;21.75;10.75;;;15.90;60.90;;;;;;6318664;28;20044;-74
2022/11/13 16:05:33;;;;;;;19.45;9.50;;;15.80;61.80;;;;;;6317741;28;20040;-74
2022/11/13 16:08:52;;;;;;;25.73;11.20;;;15.80;61.10;;;;;;6318962;28;20036;-74
2022/11/13 16:12:11;;;;;;;;;;;15.70;61.20;;;;;;6321674;28;20040;-74
2022/11/13 16:15:31;;;;;;;18.85;10.13;;;15.70;61.40;;;;;;6321433;28;19916;-74
2022/11/13 16:18:51;;;;;;;31.48;11.93;;;15.60;61.50;;;;;;6320068;28;20036;-75
2022/11/13 16:22:25;;;;;;;28.85;11.68;;;15.60;61.80;;;;;;6320401;28;20031;-74
2022/11/13 16:25:47;;;;;;;25.02;11.82;;;15.50;62.00;;;;;;6322855;28;20048;-75
2022/11/13 16:29:24;;;;;;;29.17;11.35;;;15.50;62.20;;;;;;6323376;28;20452;-74
2022/11/13 16:32:44;;;;;;;29.25;12.27;;;15.40;62.50;;;;;;6319012;28;20044;-74
2022/11/13 16:36:04;;;;;;;23.30;11.07;;;15.40;62.70;;;;;;6319342;28;20032;-73
2022/11/13 16:39:23;;;;;;;26.80;11.18;;;15.40;62.80;;;;;;6314164;28;20032;-74
2022/11/13 16:42:43;;;;;;;23.65;11.50;;;15.30;62.90;;;;;;6312591;28;20124;-74
2022/11/13 16:46:18;;;;;;;26.60;11.23;;;15.20;62.90;;;;;;6318071;28;20048;-75
2022/11/13 16:49:37;;;;;;;23.08;10.98;;;15.20;63.20;;;;;;6319552;28;20064;-75
2022/11/13 16:52:57;;;;;;;27.33;11.98;;;15.10;63.40;;;;;;6318477;28;20429;-74
2022/11/13 16:56:27;;;;;;;25.23;11.25;;;15.10;63.60;;;;;;6318646;28;20040;-74
2022/11/13 16:59:47;;;;;;;22.70;11.25;;;15.00;63.70;;;;;;6307063;28;20540;-77
2022/11/13 17:03:06;;;;;;;23.10;11.23;;;15.00;63.70;;;;;;6316514;28;20024;-77
2022/11/13 17:06:28;;;;;;;26.10;12.15;;;15.00;63.90;;;;;;6316392;28;20040;-76
2022/11/13 17:09:48;;;;;;;25.73;11.73;;;14.90;63.90;;;;;;6315417;28;20048;-77
2022/11/13 17:13:08;;;;;;;26.20;11.93;;;14.90;64.10;;;;;;6317713;28;20063;-77
2022/11/13 17:16:29;;;;;;;33.90;12.52;;;14.90;64.20;;;;;;6315133;28;20040;-78
2022/11/13 17:19:48;;;;;;;27.23;11.45;;;14.90;64.40;;;;;;6316145;28;20040;-77
2022/11/13 17:23:13;;;;;;;25.85;12.57;;;14.80;64.70;;;;;;6318684;28;20039;-76
2022/11/13 17:26:33;;;;;;;26.13;11.40;;;14.70;64.90;;;;;;6316190;28;20044;-76